Santa Lucia — A8IP5 — position and weather

sailwx.info

Track history (hours):
 
Tides and Currents Weather Stations Pressure Air Temp Water Temp Dewpoint Dewpoint Depression Visibility Wind Speed Wind Dir Waves Ship Positions

Santa Lucia

Last reported at 2016-Sep-28 15:22 UTC. Time now 2016-Oct-01 08:48 UTC.
Position N 09°52' W 080°11'.

Length 143 m; beam 22 m.

Type: Cargo ship. MMSI: 636091017.

Date/timePositionNaut miles runAvg speedWind from/ knotsBaromVisibWave heightAir tempDewpointWater temp
2016-Sep-28 15:22N 09°52' W 080°11'4716.3
2016-Sep-28 12:27N 09°50' W 079°23'  
2016-Sep-22 04:25N 38°33' W 074°50'1516.6
2016-Sep-22 03:30N 38°46' W 075°02'4816.1
2016-Sep-22 00:30N 39°27' W 075°33'1313.8
2016-Sep-21 23:33N 39°40' W 075°32'1211.8
2016-Sep-21 22:33N 39°50' W 075°22'12 4.1
2016-Sep-21 19:33N 39°55' W 075°08'0 0.0
2016-Sep-21 16:28N 39°55' W 075°08'3 0.1
2016-Sep-20 08:33N 39°53' W 075°10'9 9.3
2016-Sep-20 07:33N 39°50' W 075°22'10 9.9
2016-Sep-20 06:34N 39°43' W 075°31'5814.5
2016-Sep-20 02:33N 38°49' W 075°03'  
Track history (hours):
 
Tides and Currents Weather Stations Pressure Air Temp Water Temp Dewpoint Dewpoint Depression Visibility Wind Speed Wind Dir Waves Ship Positions

Santa Lucia

Last reported at 2016-Sep-28 15:22 UTC. Time now 2016-Oct-01 08:48 UTC.
Position N 09°52' W 080°11'.

Length 143 m; beam 22 m.

Type: Cargo ship. MMSI: 636091017.

Date/timePositionNaut miles runAvg speedWind from/ knotsBaromVisibWave heightAir tempDewpointWater temp
2016-Sep-28 15:22N 09°52' W 080°11'4716.3
2016-Sep-28 12:27N 09°50' W 079°23'  
2016-Sep-22 04:25N 38°33' W 074°50'1516.6
2016-Sep-22 03:30N 38°46' W 075°02'4816.1
2016-Sep-22 00:30N 39°27' W 075°33'1313.8
2016-Sep-21 23:33N 39°40' W 075°32'1211.8
2016-Sep-21 22:33N 39°50' W 075°22'12 4.1
2016-Sep-21 19:33N 39°55' W 075°08'0 0.0
2016-Sep-21 16:28N 39°55' W 075°08'3 0.1
2016-Sep-20 08:33N 39°53' W 075°10'9 9.3
2016-Sep-20 07:33N 39°50' W 075°22'10 9.9
2016-Sep-20 06:34N 39°43' W 075°31'5814.5
2016-Sep-20 02:33N 38°49' W 075°03'  

Dump ship's entire track history